Strona główna
METAR-TAF:

METAR-TAF

Lotnisko :

RAF

Holbeach, Anglia

Szerokość geograficzna: 52-52N, Długość geograficzna: 000-09E, wysokość: 3 m

Aktualna obserwacja pogody

Raport powstał 23 godziny i 19 minut temu, godzina 16:50 UTC
Wiatr 19 kt od południe
Temperatura 9°C
Wilgotność 87%
Ciśnienie 1011 hPa
Widzialność 10 km lub więcej
Brak chmur poniżej 1500 m i brak chmur cumulonimbus

METAR: EGYH 241650Z 19019KT CAVOK 09/07 Q1011 RMK BLU

czas: 16:09 (16:09 UTC)


TAF: brakujący

Obserwacja i prognoza pogody dla ponad 4000 lotnisk (raport METAR i TAF).

Dostępne stacje oznaczono żółtymi i czerwonymi punktami na mapie.

Najedź kursorem aby zobaczyć nazwę stacji.

Kliknij aby zobaczyć obserwacje i prognozy pogody.

Aby zmienić mapę: kliknij na zielony przycisk z czarnym krzyżykiem, aby powiększyć; na zielony przycisk z myślnikiem, aby pomniejszyć; na zielone strzałki, aby przejść do map sąsiednich.


METAR-TAF: